sensor_id;sensor_type;location;lat;lon;timestamp;temperature;humidity
13148;DHT22;6639;50.956;4.242;2022-07-23T00:04:45;25.60;97.20
13148;DHT22;6639;50.956;4.242;2022-07-23T00:07:14;25.60;97.30
13148;DHT22;6639;50.956;4.242;2022-07-23T00:09:43;25.30;97.20
13148;DHT22;6639;50.956;4.242;2022-07-23T00:12:14;25.20;97.70
13148;DHT22;6639;50.956;4.242;2022-07-23T00:14:42;25.30;97.90
13148;DHT22;6639;50.956;4.242;2022-07-23T00:17:09;25.30;97.90
13148;DHT22;6639;50.956;4.242;2022-07-23T00:19:55;25.20;98.10
13148;DHT22;6639;50.956;4.242;2022-07-23T00:22:22;25.10;98.20
13148;DHT22;6639;50.956;4.242;2022-07-23T00:24:50;25.00;98.10
13148;DHT22;6639;50.956;4.242;2022-07-23T00:27:21;25.00;98.10
13148;DHT22;6639;50.956;4.242;2022-07-23T00:29:52;25.10;98.00
13148;DHT22;6639;50.956;4.242;2022-07-23T00:32:19;25.10;97.90
13148;DHT22;6639;50.956;4.242;2022-07-23T00:34:47;25.00;98.00
13148;DHT22;6639;50.956;4.242;2022-07-23T00:37:16;25.00;98.00
13148;DHT22;6639;50.956;4.242;2022-07-23T00:39:44;25.00;98.00
13148;DHT22;6639;50.956;4.242;2022-07-23T00:42:12;25.00;97.90
13148;DHT22;6639;50.956;4.242;2022-07-23T00:44:44;25.10;97.70
13148;DHT22;6639;50.956;4.242;2022-07-23T00:47:14;25.20;97.60
13148;DHT22;6639;50.956;4.242;2022-07-23T00:49:41;25.10;97.50
13148;DHT22;6639;50.956;4.242;2022-07-23T00:52:08;25.20;97.20
13148;DHT22;6639;50.956;4.242;2022-07-23T00:54:36;25.20;97.10
13148;DHT22;6639;50.956;4.242;2022-07-23T00:57:03;25.10;97.00
13148;DHT22;6639;50.956;4.242;2022-07-23T00:59:34;25.00;97.00
13148;DHT22;6639;50.956;4.242;2022-07-23T01:02:03;24.90;97.10
13148;DHT22;6639;50.956;4.242;2022-07-23T01:04:31;25.00;97.00
13148;DHT22;6639;50.956;4.242;2022-07-23T01:07:03;24.90;97.10
13148;DHT22;6639;50.956;4.242;2022-07-23T01:09:34;24.80;96.80
13148;DHT22;6639;50.956;4.242;2022-07-23T01:12:01;24.90;96.80
13148;DHT22;6639;50.956;4.242;2022-07-23T01:14:34;24.80;97.00
13148;DHT22;6639;50.956;4.242;2022-07-23T01:17:03;24.70;97.00
13148;DHT22;6639;50.956;4.242;2022-07-23T01:19:31;24.80;97.30
13148;DHT22;6639;50.956;4.242;2022-07-23T01:22:01;24.70;97.30
13148;DHT22;6639;50.956;4.242;2022-07-23T01:24:32;24.70;97.60
13148;DHT22;6639;50.956;4.242;2022-07-23T01:27:02;24.50;97.50
13148;DHT22;6639;50.956;4.242;2022-07-23T01:29:31;24.50;97.50
13148;DHT22;6639;50.956;4.242;2022-07-23T01:31:58;24.50;97.20
13148;DHT22;6639;50.956;4.242;2022-07-23T01:34:25;24.40;97.20
13148;DHT22;6639;50.956;4.242;2022-07-23T01:36:52;24.10;97.50
13148;DHT22;6639;50.956;4.242;2022-07-23T01:39:19;24.20;97.80
13148;DHT22;6639;50.956;4.242;2022-07-23T01:41:50;24.30;97.70
13148;DHT22;6639;50.956;4.242;2022-07-23T01:44:17;24.10;97.60
13148;DHT22;6639;50.956;4.242;2022-07-23T01:46:44;24.10;98.00
13148;DHT22;6639;50.956;4.242;2022-07-23T01:49:12;24.00;97.70
13148;DHT22;6639;50.956;4.242;2022-07-23T01:51:40;24.20;97.60
13148;DHT22;6639;50.956;4.242;2022-07-23T01:54:25;24.10;97.50
13148;DHT22;6639;50.956;4.242;2022-07-23T01:56:53;24.00;97.80
13148;DHT22;6639;50.956;4.242;2022-07-23T01:59:20;24.00;97.80
13148;DHT22;6639;50.956;4.242;2022-07-23T02:01:48;23.90;97.90
13148;DHT22;6639;50.956;4.242;2022-07-23T02:04:16;23.90;98.00
13148;DHT22;6639;50.956;4.242;2022-07-23T02:06:43;24.10;97.70
13148;DHT22;6639;50.956;4.242;2022-07-23T02:09:11;23.90;97.50
13148;DHT22;6639;50.956;4.242;2022-07-23T02:11:40;24.20;97.40
13148;DHT22;6639;50.956;4.242;2022-07-23T02:14:09;24.10;97.30
13148;DHT22;6639;50.956;4.242;2022-07-23T02:16:36;24.10;97.10
13148;DHT22;6639;50.956;4.242;2022-07-23T02:19:05;24.10;97.00
13148;DHT22;6639;50.956;4.242;2022-07-23T02:21:32;24.20;97.00
13148;DHT22;6639;50.956;4.242;2022-07-23T02:24:00;24.00;97.00
13148;DHT22;6639;50.956;4.242;2022-07-23T02:26:27;24.10;97.00
13148;DHT22;6639;50.956;4.242;2022-07-23T02:28:54;23.90;97.10
13148;DHT22;6639;50.956;4.242;2022-07-23T02:31:22;23.80;97.30
13148;DHT22;6639;50.956;4.242;2022-07-23T02:33:49;23.80;97.40
13148;DHT22;6639;50.956;4.242;2022-07-23T02:36:21;23.90;97.50
13148;DHT22;6639;50.956;4.242;2022-07-23T02:38:49;23.90;97.40
13148;DHT22;6639;50.956;4.242;2022-07-23T02:41:16;23.80;97.40
13148;DHT22;6639;50.956;4.242;2022-07-23T02:43:43;23.70;97.30
13148;DHT22;6639;50.956;4.242;2022-07-23T02:46:10;23.90;97.10
13148;DHT22;6639;50.956;4.242;2022-07-23T02:48:39;24.10;96.80
13148;DHT22;6639;50.956;4.242;2022-07-23T02:51:06;23.90;97.10
13148;DHT22;6639;50.956;4.242;2022-07-23T02:53:33;23.70;97.30
13148;DHT22;6639;50.956;4.242;2022-07-23T02:56:00;23.60;97.30
13148;DHT22;6639;50.956;4.242;2022-07-23T02:58:27;23.70;97.30
13148;DHT22;6639;50.956;4.242;2022-07-23T03:00:55;23.50;97.10
13148;DHT22;6639;50.956;4.242;2022-07-23T03:03:24;23.60;97.20
13148;DHT22;6639;50.956;4.242;2022-07-23T03:05:53;23.60;97.30
13148;DHT22;6639;50.956;4.242;2022-07-23T03:08:20;23.50;97.00
13148;DHT22;6639;50.956;4.242;2022-07-23T03:10:47;23.40;97.40
13148;DHT22;6639;50.956;4.242;2022-07-23T03:13:15;23.50;97.40
13148;DHT22;6639;50.956;4.242;2022-07-23T03:15:42;23.60;97.20
13148;DHT22;6639;50.956;4.242;2022-07-23T03:18:09;23.50;97.20
13148;DHT22;6639;50.956;4.242;2022-07-23T03:20:36;23.50;97.20
13148;DHT22;6639;50.956;4.242;2022-07-23T03:23:05;23.50;97.10
13148;DHT22;6639;50.956;4.242;2022-07-23T03:25:32;23.60;96.90
13148;DHT22;6639;50.956;4.242;2022-07-23T03:27:59;23.40;96.90
13148;DHT22;6639;50.956;4.242;2022-07-23T03:30:28;23.40;96.90
13148;DHT22;6639;50.956;4.242;2022-07-23T03:32:55;23.50;96.80
13148;DHT22;6639;50.956;4.242;2022-07-23T03:35:22;23.60;96.90
13148;DHT22;6639;50.956;4.242;2022-07-23T03:37:50;23.50;96.90
13148;DHT22;6639;50.956;4.242;2022-07-23T03:40:18;23.50;96.80
13148;DHT22;6639;50.956;4.242;2022-07-23T03:42:45;23.30;96.70
13148;DHT22;6639;50.956;4.242;2022-07-23T03:45:12;23.30;96.90
13148;DHT22;6639;50.956;4.242;2022-07-23T03:47:39;23.30;96.80
13148;DHT22;6639;50.956;4.242;2022-07-23T03:50:10;23.30;97.10
13148;DHT22;6639;50.956;4.242;2022-07-23T03:52:39;23.20;97.10
13148;DHT22;6639;50.956;4.242;2022-07-23T03:55:06;23.30;97.20
13148;DHT22;6639;50.956;4.242;2022-07-23T03:57:35;23.30;96.90
13148;DHT22;6639;50.956;4.242;2022-07-23T04:00:03;23.40;96.80
13148;DHT22;6639;50.956;4.242;2022-07-23T04:02:38;23.30;96.90
13148;DHT22;6639;50.956;4.242;2022-07-23T04:05:06;23.40;96.90
13148;DHT22;6639;50.956;4.242;2022-07-23T04:07:36;23.40;96.90
13148;DHT22;6639;50.956;4.242;2022-07-23T04:10:09;23.40;96.70
13148;DHT22;6639;50.956;4.242;2022-07-23T04:12:40;23.20;97.00
13148;DHT22;6639;50.956;4.242;2022-07-23T04:15:10;23.30;96.90
13148;DHT22;6639;50.956;4.242;2022-07-23T04:17:40;23.10;96.90
13148;DHT22;6639;50.956;4.242;2022-07-23T04:20:10;23.00;97.00
13148;DHT22;6639;50.956;4.242;2022-07-23T04:22:37;23.00;97.20
13148;DHT22;6639;50.956;4.242;2022-07-23T04:25:07;23.10;97.10
13148;DHT22;6639;50.956;4.242;2022-07-23T04:27:37;23.20;97.00
13148;DHT22;6639;50.956;4.242;2022-07-23T04:30:09;23.30;96.90
13148;DHT22;6639;50.956;4.242;2022-07-23T04:32:36;23.20;96.70
13148;DHT22;6639;50.956;4.242;2022-07-23T04:35:06;23.10;96.70
13148;DHT22;6639;50.956;4.242;2022-07-23T04:37:33;23.10;96.90
13148;DHT22;6639;50.956;4.242;2022-07-23T04:40:00;23.10;97.00
13148;DHT22;6639;50.956;4.242;2022-07-23T04:42:31;23.10;97.00
13148;DHT22;6639;50.956;4.242;2022-07-23T04:45:00;23.20;97.10
13148;DHT22;6639;50.956;4.242;2022-07-23T04:47:30;23.20;96.80
13148;DHT22;6639;50.956;4.242;2022-07-23T04:49:58;23.10;97.20
13148;DHT22;6639;50.956;4.242;2022-07-23T04:52:25;23.30;97.50
13148;DHT22;6639;50.956;4.242;2022-07-23T04:54:52;23.40;97.40
13148;DHT22;6639;50.956;4.242;2022-07-23T04:57:19;23.30;97.80
13148;DHT22;6639;50.956;4.242;2022-07-23T04:59:46;23.50;97.90
13148;DHT22;6639;50.956;4.242;2022-07-23T05:02:15;23.70;98.40
13148;DHT22;6639;50.956;4.242;2022-07-23T05:04:45;23.70;98.60
13148;DHT22;6639;50.956;4.242;2022-07-23T05:07:15;23.90;98.30
13148;DHT22;6639;50.956;4.242;2022-07-23T05:09:45;24.00;98.10
13148;DHT22;6639;50.956;4.242;2022-07-23T05:12:12;24.20;97.60
13148;DHT22;6639;50.956;4.242;2022-07-23T05:14:39;24.40;98.00
13148;DHT22;6639;50.956;4.242;2022-07-23T05:17:06;24.70;98.10
13148;DHT22;6639;50.956;4.242;2022-07-23T05:19:33;24.90;98.10
13148;DHT22;6639;50.956;4.242;2022-07-23T05:22:02;25.10;97.80
13148;DHT22;6639;50.956;4.242;2022-07-23T05:24:31;25.20;97.80
13148;DHT22;6639;50.956;4.242;2022-07-23T05:26:58;25.50;97.60
13148;DHT22;6639;50.956;4.242;2022-07-23T05:29:25;25.60;97.40
13148;DHT22;6639;50.956;4.242;2022-07-23T05:31:52;25.90;97.60
13148;DHT22;6639;50.956;4.242;2022-07-23T05:34:19;25.80;97.10
13148;DHT22;6639;50.956;4.242;2022-07-23T05:36:47;25.70;97.20
13148;DHT22;6639;50.956;4.242;2022-07-23T05:39:15;25.70;96.90
13148;DHT22;6639;50.956;4.242;2022-07-23T05:41:43;25.40;97.20
13148;DHT22;6639;50.956;4.242;2022-07-23T05:44:10;25.10;97.90
13148;DHT22;6639;50.956;4.242;2022-07-23T05:46:37;25.40;97.40
13148;DHT22;6639;50.956;4.242;2022-07-23T05:49:06;25.60;97.00
13148;DHT22;6639;50.956;4.242;2022-07-23T05:51:33;25.90;96.80
13148;DHT22;6639;50.956;4.242;2022-07-23T05:54:00;25.90;96.60
13148;DHT22;6639;50.956;4.242;2022-07-23T05:56:39;25.90;96.50
13148;DHT22;6639;50.956;4.242;2022-07-23T05:59:13;26.00;96.70
13148;DHT22;6639;50.956;4.242;2022-07-23T06:01:40;25.90;96.80
13148;DHT22;6639;50.956;4.242;2022-07-23T06:04:11;26.10;97.30
13148;DHT22;6639;50.956;4.242;2022-07-23T06:24:05;27.70;96.00
13148;DHT22;6639;50.956;4.242;2022-07-23T06:26:32;28.00;95.70
13148;DHT22;6639;50.956;4.242;2022-07-23T06:29:01;28.30;95.00
13148;DHT22;6639;50.956;4.242;2022-07-23T06:31:31;28.10;95.10
13148;DHT22;6639;50.956;4.242;2022-07-23T06:33:59;28.50;95.80
13148;DHT22;6639;50.956;4.242;2022-07-23T06:36:27;28.50;95.00
13148;DHT22;6639;50.956;4.242;2022-07-23T06:38:54;28.90;94.70
13148;DHT22;6639;50.956;4.242;2022-07-23T06:41:36;28.80;94.00
13148;DHT22;6639;50.956;4.242;2022-07-23T06:44:05;29.00;93.80
13148;DHT22;6639;50.956;4.242;2022-07-23T06:46:32;28.50;94.20
13148;DHT22;6639;50.956;4.242;2022-07-23T06:49:07;28.60;94.20
13148;DHT22;6639;50.956;4.242;2022-07-23T06:51:35;27.90;95.20
13148;DHT22;6639;50.956;4.242;2022-07-23T06:54:02;28.50;95.30
13148;DHT22;6639;50.956;4.242;2022-07-23T06:56:30;28.80;94.70
13148;DHT22;6639;50.956;4.242;2022-07-23T06:58:58;29.10;95.00
13148;DHT22;6639;50.956;4.242;2022-07-23T07:01:25;29.20;94.20
13148;DHT22;6639;50.956;4.242;2022-07-23T07:03:54;29.10;94.40
13148;DHT22;6639;50.956;4.242;2022-07-23T07:06:21;28.70;94.70
13148;DHT22;6639;50.956;4.242;2022-07-23T07:08:48;28.80;94.60
13148;DHT22;6639;50.956;4.242;2022-07-23T07:11:15;28.60;94.90
13148;DHT22;6639;50.956;4.242;2022-07-23T07:13:51;28.90;94.50
13148;DHT22;6639;50.956;4.242;2022-07-23T07:16:20;29.50;94.80
13148;DHT22;6639;50.956;4.242;2022-07-23T07:18:47;29.30;93.60
13148;DHT22;6639;50.956;4.242;2022-07-23T07:21:14;29.20;94.00
13148;DHT22;6639;50.956;4.242;2022-07-23T07:23:41;29.60;93.10
13148;DHT22;6639;50.956;4.242;2022-07-23T07:26:08;29.50;93.80
13148;DHT22;6639;50.956;4.242;2022-07-23T07:28:40;29.90;92.90
13148;DHT22;6639;50.956;4.242;2022-07-23T07:31:07;30.40;92.80
13148;DHT22;6639;50.956;4.242;2022-07-23T07:33:35;30.40;92.30
13148;DHT22;6639;50.956;4.242;2022-07-23T07:36:03;31.00;91.60
13148;DHT22;6639;50.956;4.242;2022-07-23T07:38:30;31.10;90.60
13148;DHT22;6639;50.956;4.242;2022-07-23T07:40:57;31.10;91.60
13148;DHT22;6639;50.956;4.242;2022-07-23T07:43:24;31.20;91.60
13148;DHT22;6639;50.956;4.242;2022-07-23T07:45:58;31.10;91.30
13148;DHT22;6639;50.956;4.242;2022-07-23T07:48:28;31.90;90.80
13148;DHT22;6639;50.956;4.242;2022-07-23T07:50:57;32.20;90.20
13148;DHT22;6639;50.956;4.242;2022-07-23T07:53:24;32.80;89.00
13148;DHT22;6639;50.956;4.242;2022-07-23T07:56:10;32.30;89.80
13148;DHT22;6639;50.956;4.242;2022-07-23T07:58:37;32.50;88.80
13148;DHT22;6639;50.956;4.242;2022-07-23T08:01:05;32.40;89.40
13148;DHT22;6639;50.956;4.242;2022-07-23T08:03:32;32.60;90.40
13148;DHT22;6639;50.956;4.242;2022-07-23T08:06:00;32.10;88.80
13148;DHT22;6639;50.956;4.242;2022-07-23T08:08:28;32.00;88.00
13148;DHT22;6639;50.956;4.242;2022-07-23T08:10:55;32.60;87.60
13148;DHT22;6639;50.956;4.242;2022-07-23T08:13:22;32.80;88.00
13148;DHT22;6639;50.956;4.242;2022-07-23T08:15:49;32.80;87.30
13148;DHT22;6639;50.956;4.242;2022-07-23T08:18:18;33.30;86.70
13148;DHT22;6639;50.956;4.242;2022-07-23T08:20:48;33.10;84.40
13148;DHT22;6639;50.956;4.242;2022-07-23T08:23:18;33.20;85.10
13148;DHT22;6639;50.956;4.242;2022-07-23T08:25:46;33.30;84.50
13148;DHT22;6639;50.956;4.242;2022-07-23T08:28:14;34.20;84.90
13148;DHT22;6639;50.956;4.242;2022-07-23T08:30:44;34.50;81.50
13148;DHT22;6639;50.956;4.242;2022-07-23T08:33:12;34.70;80.40
13148;DHT22;6639;50.956;4.242;2022-07-23T08:35:42;34.70;81.00
13148;DHT22;6639;50.956;4.242;2022-07-23T08:38:10;34.30;80.60
13148;DHT22;6639;50.956;4.242;2022-07-23T08:40:41;33.80;81.80
13148;DHT22;6639;50.956;4.242;2022-07-23T08:43:13;34.10;78.00
13148;DHT22;6639;50.956;4.242;2022-07-23T08:45:44;33.90;80.00
13148;DHT22;6639;50.956;4.242;2022-07-23T08:48:13;34.10;81.00
13148;DHT22;6639;50.956;4.242;2022-07-23T08:50:44;34.30;83.60
13148;DHT22;6639;50.956;4.242;2022-07-23T08:53:12;33.70;78.90
13148;DHT22;6639;50.956;4.242;2022-07-23T08:55:40;33.50;76.20
13148;DHT22;6639;50.956;4.242;2022-07-23T08:58:10;33.40;76.80
13148;DHT22;6639;50.956;4.242;2022-07-23T09:00:38;33.70;77.80
13148;DHT22;6639;50.956;4.242;2022-07-23T09:03:07;34.50;80.50
13148;DHT22;6639;50.956;4.242;2022-07-23T09:05:36;34.60;77.50
13148;DHT22;6639;50.956;4.242;2022-07-23T09:08:11;35.20;76.20
13148;DHT22;6639;50.956;4.242;2022-07-23T09:10:48;34.70;74.00
13148;DHT22;6639;50.956;4.242;2022-07-23T09:13:41;34.50;74.40
13148;DHT22;6639;50.956;4.242;2022-07-23T09:16:11;35.10;75.20
13148;DHT22;6639;50.956;4.242;2022-07-23T09:18:44;35.40;75.80
13148;DHT22;6639;50.956;4.242;2022-07-23T09:21:19;35.50;72.10
13148;DHT22;6639;50.956;4.242;2022-07-23T09:23:53;35.00;74.70
13148;DHT22;6639;50.956;4.242;2022-07-23T09:26:30;35.60;74.60
13148;DHT22;6639;50.956;4.242;2022-07-23T09:29:06;36.00;72.80
13148;DHT22;6639;50.956;4.242;2022-07-23T09:31:42;36.30;71.60
13148;DHT22;6639;50.956;4.242;2022-07-23T09:34:12;36.40;71.50
13148;DHT22;6639;50.956;4.242;2022-07-23T09:36:40;36.30;70.60
13148;DHT22;6639;50.956;4.242;2022-07-23T09:39:08;36.50;71.40
13148;DHT22;6639;50.956;4.242;2022-07-23T09:41:41;35.80;71.20
13148;DHT22;6639;50.956;4.242;2022-07-23T09:44:14;35.10;69.60
13148;DHT22;6639;50.956;4.242;2022-07-23T09:46:42;34.10;69.30
13148;DHT22;6639;50.956;4.242;2022-07-23T09:49:20;34.00;69.80
13148;DHT22;6639;50.956;4.242;2022-07-23T09:51:53;33.60;69.60
13148;DHT22;6639;50.956;4.242;2022-07-23T09:54:23;33.70;71.20
13148;DHT22;6639;50.956;4.242;2022-07-23T09:56:53;33.00;70.30
13148;DHT22;6639;50.956;4.242;2022-07-23T09:59:23;33.20;72.50
13148;DHT22;6639;50.956;4.242;2022-07-23T10:01:51;33.50;73.20
13148;DHT22;6639;50.956;4.242;2022-07-23T10:04:19;33.30;72.20
13148;DHT22;6639;50.956;4.242;2022-07-23T10:06:48;33.10;72.50
13148;DHT22;6639;50.956;4.242;2022-07-23T10:09:22;33.20;72.50
13148;DHT22;6639;50.956;4.242;2022-07-23T10:11:51;33.80;72.80
13148;DHT22;6639;50.956;4.242;2022-07-23T10:14:20;34.20;72.30
13148;DHT22;6639;50.956;4.242;2022-07-23T10:16:48;34.30;71.80
13148;DHT22;6639;50.956;4.242;2022-07-23T10:19:15;34.30;71.40
13148;DHT22;6639;50.956;4.242;2022-07-23T10:21:45;33.10;72.20
13148;DHT22;6639;50.956;4.242;2022-07-23T10:24:21;31.90;72.90
13148;DHT22;6639;50.956;4.242;2022-07-23T10:26:58;32.30;74.10
13148;DHT22;6639;50.956;4.242;2022-07-23T10:29:38;33.20;72.00
13148;DHT22;6639;50.956;4.242;2022-07-23T10:32:17;34.00;70.40
13148;DHT22;6639;50.956;4.242;2022-07-23T10:34:52;34.00;68.70
13148;DHT22;6639;50.956;4.242;2022-07-23T10:37:24;34.20;69.80
13148;DHT22;6639;50.956;4.242;2022-07-23T10:40:12;33.80;69.40
13148;DHT22;6639;50.956;4.242;2022-07-23T10:42:41;32.90;71.40
13148;DHT22;6639;50.956;4.242;2022-07-23T10:45:25;33.10;71.80
13148;DHT22;6639;50.956;4.242;2022-07-23T10:47:53;33.40;71.30
13148;DHT22;6639;50.956;4.242;2022-07-23T10:50:22;33.70;70.20
13148;DHT22;6639;50.956;4.242;2022-07-23T10:53:16;33.40;72.30
13148;DHT22;6639;50.956;4.242;2022-07-23T10:55:46;33.50;71.40
13148;DHT22;6639;50.956;4.242;2022-07-23T10:58:23;33.70;70.70
13148;DHT22;6639;50.956;4.242;2022-07-23T11:01:00;33.50;70.00
13148;DHT22;6639;50.956;4.242;2022-07-23T11:03:29;32.80;68.70
13148;DHT22;6639;50.956;4.242;2022-07-23T11:05:58;33.70;69.60
13148;DHT22;6639;50.956;4.242;2022-07-23T11:08:25;34.50;69.90
13148;DHT22;6639;50.956;4.242;2022-07-23T11:10:54;35.00;68.80
13148;DHT22;6639;50.956;4.242;2022-07-23T11:13:47;35.40;70.20
13148;DHT22;6639;50.956;4.242;2022-07-23T11:16:20;35.40;70.10
13148;DHT22;6639;50.956;4.242;2022-07-23T11:19:05;35.40;67.70
13148;DHT22;6639;50.956;4.242;2022-07-23T11:21:49;35.60;66.00
13148;DHT22;6639;50.956;4.242;2022-07-23T11:24:20;35.80;67.00
13148;DHT22;6639;50.956;4.242;2022-07-23T11:26:50;35.30;67.70
13148;DHT22;6639;50.956;4.242;2022-07-23T11:29:39;35.20;66.90
13148;DHT22;6639;50.956;4.242;2022-07-23T11:32:07;34.70;66.80
13148;DHT22;6639;50.956;4.242;2022-07-23T11:34:36;34.80;66.30
13148;DHT22;6639;50.956;4.242;2022-07-23T11:37:07;34.60;67.60
13148;DHT22;6639;50.956;4.242;2022-07-23T11:39:34;35.00;67.20
13148;DHT22;6639;50.956;4.242;2022-07-23T11:42:03;35.10;66.60
13148;DHT22;6639;50.956;4.242;2022-07-23T11:44:33;34.70;68.10
13148;DHT22;6639;50.956;4.242;2022-07-23T11:47:04;35.10;68.00
13148;DHT22;6639;50.956;4.242;2022-07-23T11:49:32;36.00;66.20
13148;DHT22;6639;50.956;4.242;2022-07-23T11:52:03;36.10;66.30
13148;DHT22;6639;50.956;4.242;2022-07-23T11:54:31;36.50;65.40
13148;DHT22;6639;50.956;4.242;2022-07-23T11:56:58;36.50;64.90
13148;DHT22;6639;50.956;4.242;2022-07-23T11:59:27;35.60;66.70
13148;DHT22;6639;50.956;4.242;2022-07-23T12:01:58;35.30;66.50
13148;DHT22;6639;50.956;4.242;2022-07-23T12:04:37;36.10;65.00
13148;DHT22;6639;50.956;4.242;2022-07-23T12:07:08;35.20;65.10
13148;DHT22;6639;50.956;4.242;2022-07-23T12:09:48;35.70;66.00
13148;DHT22;6639;50.956;4.242;2022-07-23T12:12:15;35.90;65.80
13148;DHT22;6639;50.956;4.242;2022-07-23T12:14:48;36.00;67.10
13148;DHT22;6639;50.956;4.242;2022-07-23T12:17:15;36.00;66.40
13148;DHT22;6639;50.956;4.242;2022-07-23T12:19:46;36.40;64.90
13148;DHT22;6639;50.956;4.242;2022-07-23T12:22:13;36.50;64.30
13148;DHT22;6639;50.956;4.242;2022-07-23T12:24:54;36.40;65.50
13148;DHT22;6639;50.956;4.242;2022-07-23T12:27:22;35.50;65.80
13148;DHT22;6639;50.956;4.242;2022-07-23T12:29:49;35.90;66.70
13148;DHT22;6639;50.956;4.242;2022-07-23T12:32:18;35.60;65.70
13148;DHT22;6639;50.956;4.242;2022-07-23T12:34:48;35.90;66.50
13148;DHT22;6639;50.956;4.242;2022-07-23T12:37:27;36.20;64.70
13148;DHT22;6639;50.956;4.242;2022-07-23T12:39:54;35.70;66.50
13148;DHT22;6639;50.956;4.242;2022-07-23T12:42:22;35.70;67.40
13148;DHT22;6639;50.956;4.242;2022-07-23T12:45:04;35.30;65.40
13148;DHT22;6639;50.956;4.242;2022-07-23T12:47:54;34.90;67.50
13148;DHT22;6639;50.956;4.242;2022-07-23T12:50:42;35.50;68.00
13148;DHT22;6639;50.956;4.242;2022-07-23T12:53:13;35.30;67.60
13148;DHT22;6639;50.956;4.242;2022-07-23T12:55:41;35.20;67.80
13148;DHT22;6639;50.956;4.242;2022-07-23T12:58:11;35.00;68.40
13148;DHT22;6639;50.956;4.242;2022-07-23T13:01:01;35.50;67.60
13148;DHT22;6639;50.956;4.242;2022-07-23T13:03:33;35.40;67.90
13148;DHT22;6639;50.956;4.242;2022-07-23T13:06:03;35.40;66.60
13148;DHT22;6639;50.956;4.242;2022-07-23T13:08:32;35.40;66.70
13148;DHT22;6639;50.956;4.242;2022-07-23T13:11:00;35.10;66.90
13148;DHT22;6639;50.956;4.242;2022-07-23T13:13:29;35.50;67.80
13148;DHT22;6639;50.956;4.242;2022-07-23T13:16:06;36.00;67.20
13148;DHT22;6639;50.956;4.242;2022-07-23T13:18:33;36.10;65.50
13148;DHT22;6639;50.956;4.242;2022-07-23T13:21:10;36.20;66.30
13148;DHT22;6639;50.956;4.242;2022-07-23T13:23:38;36.50;67.10
13148;DHT22;6639;50.956;4.242;2022-07-23T13:26:05;36.20;66.40
13148;DHT22;6639;50.956;4.242;2022-07-23T13:28:32;36.10;66.50
13148;DHT22;6639;50.956;4.242;2022-07-23T13:31:02;36.20;67.20
13148;DHT22;6639;50.956;4.242;2022-07-23T13:33:31;36.30;66.60
13148;DHT22;6639;50.956;4.242;2022-07-23T13:36:04;36.40;66.10
13148;DHT22;6639;50.956;4.242;2022-07-23T13:38:31;36.30;65.70
13148;DHT22;6639;50.956;4.242;2022-07-23T13:41:03;36.70;66.10
13148;DHT22;6639;50.956;4.242;2022-07-23T13:43:31;36.70;64.50
13148;DHT22;6639;50.956;4.242;2022-07-23T13:45:58;37.20;64.30
13148;DHT22;6639;50.956;4.242;2022-07-23T13:48:32;37.40;65.30
13148;DHT22;6639;50.956;4.242;2022-07-23T13:50:59;37.50;64.50
13148;DHT22;6639;50.956;4.242;2022-07-23T13:56:51;37.30;65.10
13148;DHT22;6639;50.956;4.242;2022-07-23T13:59:39;36.70;64.20
13148;DHT22;6639;50.956;4.242;2022-07-23T14:02:13;36.60;64.10
13148;DHT22;6639;50.956;4.242;2022-07-23T14:04:43;36.90;64.60
13148;DHT22;6639;50.956;4.242;2022-07-23T14:07:10;37.20;64.70
13148;DHT22;6639;50.956;4.242;2022-07-23T14:10:08;36.80;64.00
13148;DHT22;6639;50.956;4.242;2022-07-23T14:15:52;36.70;63.40
13148;DHT22;6639;50.956;4.242;2022-07-23T14:18:19;36.90;64.70
13148;DHT22;6639;50.956;4.242;2022-07-23T14:20:47;36.70;63.70
13148;DHT22;6639;50.956;4.242;2022-07-23T14:23:14;37.10;65.50
13148;DHT22;6639;50.956;4.242;2022-07-23T14:32:20;35.00;66.90
13148;DHT22;6639;50.956;4.242;2022-07-23T14:35:25;35.90;65.10
13148;DHT22;6639;50.956;4.242;2022-07-23T14:41:54;36.20;67.10
13148;DHT22;6639;50.956;4.242;2022-07-23T14:47:35;36.10;65.80
13148;DHT22;6639;50.956;4.242;2022-07-23T14:50:34;36.20;65.60
13148;DHT22;6639;50.956;4.242;2022-07-23T14:56:25;36.00;63.70
13148;DHT22;6639;50.956;4.242;2022-07-23T14:58:57;36.20;65.60
13148;DHT22;6639;50.956;4.242;2022-07-23T15:01:31;36.10;65.10
13148;DHT22;6639;50.956;4.242;2022-07-23T15:04:02;36.10;66.20
13148;DHT22;6639;50.956;4.242;2022-07-23T15:06:34;35.80;65.90
13148;DHT22;6639;50.956;4.242;2022-07-23T15:09:01;35.70;65.60
13148;DHT22;6639;50.956;4.242;2022-07-23T15:11:28;35.70;66.00
13148;DHT22;6639;50.956;4.242;2022-07-23T15:13:59;34.90;66.60
13148;DHT22;6639;50.956;4.242;2022-07-23T15:16:27;35.50;67.30
13148;DHT22;6639;50.956;4.242;2022-07-23T15:18:54;35.60;67.20
13148;DHT22;6639;50.956;4.242;2022-07-23T15:21:24;36.10;65.90
13148;DHT22;6639;50.956;4.242;2022-07-23T15:23:51;36.30;65.80
13148;DHT22;6639;50.956;4.242;2022-07-23T15:26:20;36.30;66.70
13148;DHT22;6639;50.956;4.242;2022-07-23T15:28:48;36.50;66.20
13148;DHT22;6639;50.956;4.242;2022-07-23T15:31:42;36.80;66.60
13148;DHT22;6639;50.956;4.242;2022-07-23T15:34:29;37.00;66.40
13148;DHT22;6639;50.956;4.242;2022-07-23T15:37:12;36.60;65.00
13148;DHT22;6639;50.956;4.242;2022-07-23T15:39:44;36.50;65.70
13148;DHT22;6639;50.956;4.242;2022-07-23T15:42:12;36.20;64.30
13148;DHT22;6639;50.956;4.242;2022-07-23T15:44:44;36.40;65.00
13148;DHT22;6639;50.956;4.242;2022-07-23T15:47:15;36.50;64.50
13148;DHT22;6639;50.956;4.242;2022-07-23T15:49:51;36.70;63.40
13148;DHT22;6639;50.956;4.242;2022-07-23T15:52:35;37.10;64.20
13148;DHT22;6639;50.956;4.242;2022-07-23T15:55:04;36.90;64.10
13148;DHT22;6639;50.956;4.242;2022-07-23T15:57:31;36.60;63.50
13148;DHT22;6639;50.956;4.242;2022-07-23T15:59:59;36.80;64.40
13148;DHT22;6639;50.956;4.242;2022-07-23T16:02:26;36.50;64.20
13148;DHT22;6639;50.956;4.242;2022-07-23T16:04:53;36.50;64.40
13148;DHT22;6639;50.956;4.242;2022-07-23T16:07:30;36.30;64.80
13148;DHT22;6639;50.956;4.242;2022-07-23T16:16:46;36.30;63.80
13148;DHT22;6639;50.956;4.242;2022-07-23T16:19:49;36.50;64.30
13148;DHT22;6639;50.956;4.242;2022-07-23T16:25:25;36.00;63.90
13148;DHT22;6639;50.956;4.242;2022-07-23T16:28:16;35.10;64.90
13148;DHT22;6639;50.956;4.242;2022-07-23T16:30:58;35.20;65.90
13148;DHT22;6639;50.956;4.242;2022-07-23T16:33:50;35.20;66.00
13148;DHT22;6639;50.956;4.242;2022-07-23T16:36:30;34.90;65.90
13148;DHT22;6639;50.956;4.242;2022-07-23T16:42:21;34.70;66.00
13148;DHT22;6639;50.956;4.242;2022-07-23T16:44:50;35.20;65.60
13148;DHT22;6639;50.956;4.242;2022-07-23T16:47:33;34.90;65.90
13148;DHT22;6639;50.956;4.242;2022-07-23T16:50:38;34.70;66.90
13148;DHT22;6639;50.956;4.242;2022-07-23T16:53:34;34.50;65.90
13148;DHT22;6639;50.956;4.242;2022-07-23T16:56:17;34.40;66.80
13148;DHT22;6639;50.956;4.242;2022-07-23T16:59:11;34.20;66.90
13148;DHT22;6639;50.956;4.242;2022-07-23T17:02:00;34.00;67.60
13148;DHT22;6639;50.956;4.242;2022-07-23T17:04:27;33.70;67.30
13148;DHT22;6639;50.956;4.242;2022-07-23T17:06:55;33.40;68.00